Time;durP1;ratioP1;P1;durP2;ratioP2;P2;SDS_P1;SDS_P2;PMS_P1;PMS_P2;Temp;Humidity;BMP_temperature;BMP_pressure;BME280_temperature;BME280_humidity;BME280_pressure;Samples;Min_cycle;Max_cycle;Signal;HPM_P1;HPM_P2
2022/02/28 00:00:38;;;;;;;39.57;21.90;;;1.30;99.90;;;2.09;100.00;-19797.94;5092989;28;20311;-59
2022/02/28 00:03:06;;;;;;;41.30;23.00;;;1.20;99.90;;;2.09;100.00;-19798.13;5093424;28;20223;-59
2022/02/28 00:05:36;;;;;;;45.97;24.70;;;1.30;99.90;;;2.24;100.00;-19803.25;5093260;28;20231;-60
2022/02/28 00:08:05;;;;;;;41.43;24.53;;;1.30;99.90;;;2.09;100.00;-19798.13;5093812;28;20228;-60
2022/02/28 00:10:33;;;;;;;43.07;23.10;;;1.30;99.90;;;2.24;100.00;-19803.06;5093164;28;20311;-60
2022/02/28 00:13:02;;;;;;;39.30;22.47;;;1.30;99.90;;;2.18;100.00;-19801.19;5092881;28;20242;-59
2022/02/28 00:15:30;;;;;;;42.80;23.87;;;1.30;99.90;;;2.15;100.00;-19800.16;5092870;28;20224;-59
2022/02/28 00:17:59;;;;;;;37.27;22.33;;;1.30;99.90;;;2.23;100.00;-19802.91;5093138;28;20700;-60
2022/02/28 00:20:27;;;;;;;43.77;24.17;;;1.30;99.90;;;2.06;100.00;-19796.91;5092800;28;20689;-61
2022/02/28 00:22:55;;;;;;;42.97;24.57;;;1.20;99.90;;;2.01;100.00;-19795.38;5093675;28;20299;-59
2022/02/28 00:25:24;;;;;;;44.73;24.63;;;1.10;99.90;;;2.07;100.00;-19797.25;5092545;28;20550;-60
2022/02/28 00:27:53;;;;;;;39.27;22.87;;;1.20;99.90;;;2.11;100.00;-19798.63;5092739;28;20657;-61
2022/02/28 00:30:22;;;;;;;41.53;24.80;;;1.20;99.90;;;1.95;100.00;-19793.34;5092634;28;20234;-59
2022/02/28 00:32:50;;;;;;;42.57;22.33;;;1.20;99.90;;;2.01;100.00;-19795.38;5092867;28;20227;-60
2022/02/28 00:35:18;;;;;;;39.20;23.37;;;1.10;99.90;;;1.92;100.00;-19792.31;5092730;28;20210;-59
2022/02/28 00:37:46;;;;;;;40.23;23.17;;;1.10;99.90;;;2.19;100.00;-19801.38;5093247;28;20230;-62
2022/02/28 00:40:14;;;;;;;42.70;23.70;;;1.20;99.90;;;2.15;100.00;-19800.00;5092028;28;20557;-61
2022/02/28 00:42:44;;;;;;;43.70;24.47;;;1.20;99.90;;;2.04;100.00;-19796.41;5092528;28;20228;-59
2022/02/28 00:45:11;;;;;;;42.00;22.43;;;1.20;99.90;;;2.06;100.00;-19797.09;5092691;28;20220;-60
2022/02/28 00:47:40;;;;;;;40.10;23.17;;;1.20;99.90;;;1.99;100.00;-19794.69;5092922;28;20251;-61
2022/02/28 00:50:12;;;;;;;41.50;22.37;;;1.20;99.90;;;2.16;100.00;-19800.34;5092513;28;20196;-59
2022/02/28 00:52:40;;;;;;;40.07;23.30;;;1.20;99.90;;;2.25;100.00;-19803.41;5093007;28;20226;-59
2022/02/28 00:55:12;;;;;;;40.50;22.97;;;1.20;99.90;;;2.11;100.00;-19798.63;5092267;28;20254;-60
2022/02/28 00:57:43;;;;;;;42.17;22.60;;;1.20;99.90;;;2.02;100.00;-19795.56;5092201;28;20254;-59
2022/02/28 01:00:16;;;;;;;40.77;22.73;;;1.10;99.90;;;2.02;100.00;-19795.72;5092210;28;20227;-59
2022/02/28 01:02:45;;;;;;;37.17;21.53;;;1.10;99.90;;;1.99;100.00;-19794.69;5092418;28;20227;-60
2022/02/28 01:05:16;;;;;;;42.80;22.73;;;1.10;99.90;;;1.87;100.00;-19790.44;5092074;28;20207;-60
2022/02/28 01:07:46;;;;;;;36.30;21.73;;;1.00;99.90;;;2.05;100.00;-19796.75;5092381;28;20275;-58
2022/02/28 01:10:17;;;;;;;42.73;23.47;;;1.10;99.90;;;1.91;100.00;-19791.97;5091821;28;20307;-60
2022/02/28 01:12:49;;;;;;;40.77;23.23;;;1.10;99.90;;;1.93;100.00;-19792.66;5091486;28;20711;-59
2022/02/28 01:15:20;;;;;;;39.27;22.73;;;1.00;99.90;;;1.95;100.00;-19793.16;5092279;28;20751;-60
2022/02/28 01:17:50;;;;;;;42.30;23.10;;;1.00;99.90;;;1.77;100.00;-19787.19;5093155;28;20764;-61
2022/02/28 01:20:19;;;;;;;36.67;20.87;;;1.00;99.90;;;1.76;100.00;-19786.66;5092664;28;20261;-61
2022/02/28 01:22:50;;;;;;;41.90;22.60;;;0.90;99.90;;;1.71;100.00;-19784.97;5092627;28;20184;-60
2022/02/28 01:25:18;;;;;;;40.70;23.17;;;0.90;99.90;;;1.81;100.00;-19788.53;5091645;28;20314;-61
2022/02/28 01:27:48;;;;;;;38.80;23.07;;;0.90;99.90;;;1.86;100.00;-19790.09;5071309;28;20220;-59
2022/02/28 01:30:17;;;;;;;41.87;22.63;;;0.90;99.90;;;2.00;100.00;-19795.03;5080472;28;20215;-59
2022/02/28 01:32:46;;;;;;;42.97;23.90;;;1.00;99.90;;;1.94;100.00;-19792.81;5091511;28;20327;-62
2022/02/28 01:35:14;;;;;;;43.57;23.03;;;1.00;99.90;;;1.78;100.00;-19787.53;5091581;28;20199;-59
2022/02/28 01:37:43;;;;;;;42.77;24.00;;;1.00;99.90;;;1.97;100.00;-19794.00;5091676;28;20212;-60
2022/02/28 01:40:15;;;;;;;40.90;24.43;;;1.00;99.90;;;1.86;100.00;-19790.25;5091522;28;20238;-60
2022/02/28 01:42:44;;;;;;;41.33;22.73;;;1.00;99.90;;;1.67;100.00;-19783.75;5091093;28;20232;-60
2022/02/28 01:45:21;;;;;;;48.27;24.97;;;0.90;99.90;;;1.80;100.00;-19788.03;5091458;28;20311;-61
2022/02/28 01:47:51;;;;;;;42.87;23.03;;;1.00;99.90;;;1.67;100.00;-19783.59;5091130;28;20759;-59
2022/02/28 01:50:19;;;;;;;40.57;23.27;;;1.00;99.90;;;1.73;100.00;-19785.81;5091310;28;20294;-61
2022/02/28 01:52:48;;;;;;;42.90;23.17;;;1.00;99.90;;;1.78;100.00;-19787.34;5091131;28;20334;-58
2022/02/28 01:55:19;;;;;;;44.03;23.53;;;1.00;99.90;;;1.71;100.00;-19785.13;5091213;28;20794;-60
2022/02/28 01:57:49;;;;;;;42.40;25.27;;;1.00;99.90;;;1.77;100.00;-19787.19;5090654;28;20244;-60
2022/02/28 02:00:21;;;;;;;42.87;21.80;;;1.00;99.90;;;1.85;100.00;-19789.91;5090863;28;20670;-62
2022/02/28 02:02:50;;;;;;;39.90;22.97;;;1.00;99.90;;;1.94;100.00;-19793.00;5091139;28;20234;-59
2022/02/28 02:05:18;;;;;;;43.27;23.70;;;1.10;99.90;;;1.94;100.00;-19793.00;5091283;28;20196;-60
2022/02/28 02:07:48;;;;;;;43.17;24.20;;;1.10;99.90;;;2.05;100.00;-19796.75;5091447;28;20274;-61
2022/02/28 02:10:18;;;;;;;43.60;24.57;;;1.10;99.90;;;2.14;100.00;-19799.81;5090847;28;20518;-59
2022/02/28 02:12:46;;;;;;;43.80;23.10;;;1.10;99.90;;;2.00;100.00;-19795.03;5090490;28;20257;-60
2022/02/28 02:15:16;;;;;;;44.83;24.97;;;1.10;99.90;;;1.95;100.00;-19793.16;5091139;28;20322;-60
2022/02/28 02:17:45;;;;;;;38.03;22.83;;;1.00;99.90;;;1.98;100.00;-19794.34;5090831;28;20230;-60
2022/02/28 02:20:33;;;;;;;39.40;23.33;;;1.00;99.90;;;1.70;100.00;-19784.78;5091049;28;20207;-60
2022/02/28 02:23:04;;;;;;;41.77;24.07;;;0.90;99.90;;;1.71;100.00;-19784.97;5091170;28;20185;-60
2022/02/28 02:25:33;;;;;;;49.83;25.50;;;0.90;99.90;;;1.92;100.00;-19792.31;5090690;28;20257;-60
2022/02/28 02:28:02;;;;;;;49.93;26.10;;;0.90;99.90;;;1.92;100.00;-19792.13;5090494;28;20323;-60
2022/02/28 02:30:31;;;;;;;52.87;27.30;;;1.00;99.90;;;1.81;100.00;-19788.53;5090766;28;20224;-59
2022/02/28 02:32:59;;;;;;;43.07;26.90;;;0.90;99.90;;;1.82;100.00;-19788.72;5090597;28;20230;-61
2022/02/28 02:35:29;;;;;;;51.67;28.20;;;0.90;99.90;;;1.77;100.00;-19787.19;5090700;28;20303;-60
2022/02/28 02:37:57;;;;;;;55.67;28.77;;;0.90;99.90;;;1.68;100.00;-19783.94;5091052;28;20289;-61
2022/02/28 02:40:25;;;;;;;57.80;29.90;;;0.90;99.90;;;1.61;100.00;-19781.53;5090610;28;20315;-60
2022/02/28 02:42:53;;;;;;;57.20;30.30;;;0.80;99.90;;;1.72;100.00;-19785.47;5090180;28;20250;-61
2022/02/28 02:45:21;;;;;;;57.23;29.50;;;0.80;99.90;;;1.64;100.00;-19782.56;5090650;28;20228;-60
2022/02/28 02:47:49;;;;;;;57.17;29.63;;;0.80;99.90;;;1.87;100.00;-19790.44;5090487;28;20306;-61
2022/02/28 02:50:17;;;;;;;59.33;29.73;;;0.90;99.90;;;1.79;100.00;-19787.88;5090542;28;20228;-60
2022/02/28 02:52:46;;;;;;;59.10;31.33;;;0.90;99.90;;;1.93;100.00;-19792.47;5090851;28;20236;-60
2022/02/28 02:55:17;;;;;;;58.07;30.37;;;0.90;99.90;;;1.76;100.00;-19786.84;5090580;28;20313;-60
2022/02/28 02:57:45;;;;;;;63.20;30.90;;;0.90;99.90;;;1.80;100.00;-19788.19;5090025;28;20786;-61
2022/02/28 03:00:14;;;;;;;58.37;30.33;;;0.90;99.90;;;1.85;100.00;-19789.91;5090419;28;20311;-60
2022/02/28 03:02:42;;;;;;;54.77;29.07;;;0.90;99.90;;;1.70;100.00;-19784.59;5092279;28;20573;-59
2022/02/28 03:05:10;;;;;;;55.20;29.27;;;0.80;99.90;;;1.74;100.00;-19785.97;5094950;28;20201;-59
2022/02/28 03:07:38;;;;;;;57.60;29.77;;;0.80;99.90;;;1.84;100.00;-19789.56;5094705;28;20288;-60
2022/02/28 03:10:08;;;;;;;54.23;30.23;;;0.90;99.90;;;1.70;100.00;-19784.59;5094246;28;20307;-61
2022/02/28 03:12:39;;;;;;;53.13;29.23;;;0.80;99.90;;;1.66;100.00;-19783.41;5093540;28;20706;-60
2022/02/28 03:15:08;;;;;;;51.93;29.30;;;0.80;99.90;;;1.79;100.00;-19787.69;5094477;28;20234;-61
2022/02/28 03:17:36;;;;;;;57.57;29.57;;;0.80;99.90;;;1.84;100.00;-19789.41;5093956;28;20313;-60
2022/02/28 03:20:05;;;;;;;54.73;28.50;;;0.90;99.90;;;1.80;100.00;-19788.19;5094631;28;20318;-62
2022/02/28 03:22:33;;;;;;;49.67;26.57;;;0.90;99.90;;;1.77;100.00;-19787.19;5093789;28;20307;-61
2022/02/28 03:25:01;;;;;;;48.17;26.87;;;0.90;99.90;;;1.91;100.00;-19791.78;5094140;28;20251;-60
2022/02/28 03:27:31;;;;;;;47.10;26.73;;;1.00;99.90;;;1.65;100.00;-19783.06;5094149;28;20230;-60
2022/02/28 03:29:59;;;;;;;47.47;25.37;;;0.90;99.90;;;1.68;100.00;-19783.94;5094068;28;20226;-60
2022/02/28 03:32:28;;;;;;;45.70;24.70;;;0.90;99.90;;;1.84;100.00;-19789.41;5093825;28;20290;-60
2022/02/28 03:34:56;;;;;;;47.87;25.60;;;0.90;99.90;;;1.78;100.00;-19787.53;5094607;28;20326;-60
2022/02/28 03:37:24;;;;;;;41.17;24.40;;;0.90;99.90;;;1.74;100.00;-19785.97;5093638;28;20620;-60
2022/02/28 03:39:52;;;;;;;42.77;24.43;;;0.80;99.90;;;1.67;100.00;-19783.59;5093785;28;20229;-60
2022/02/28 03:42:20;;;;;;;43.73;25.07;;;0.80;99.90;;;1.85;100.00;-19789.91;5093590;28;20407;-60
2022/02/28 03:44:49;;;;;;;47.47;25.30;;;0.90;99.90;;;1.69;100.00;-19784.44;5093303;28;20242;-59
2022/02/28 03:47:18;;;;;;;45.40;25.20;;;0.80;99.90;;;1.66;100.00;-19783.41;5093377;28;20235;-60
2022/02/28 03:49:45;;;;;;;46.97;26.00;;;0.80;99.90;;;1.61;100.00;-19781.69;5093737;28;20682;-58
2022/02/28 03:52:14;;;;;;;47.97;26.27;;;0.80;99.90;;;1.73;100.00;-19785.63;5093461;28;20224;-60
2022/02/28 03:54:42;;;;;;;50.00;26.70;;;0.80;99.90;;;1.68;100.00;-19784.09;5093351;28;20228;-60
2022/02/28 03:57:10;;;;;;;45.10;26.17;;;0.80;99.90;;;1.62;100.00;-19781.88;5092902;28;20224;-59
2022/02/28 03:59:38;;;;;;;48.20;26.10;;;0.80;99.90;;;1.60;100.00;-19781.38;5092989;28;20692;-61
2022/02/28 04:02:07;;;;;;;47.17;26.83;;;0.80;99.90;;;1.52;100.00;-19778.63;5094027;28;20214;-60
2022/02/28 04:04:38;;;;;;;46.17;25.53;;;0.70;99.90;;;1.57;100.00;-19780.34;5093556;28;20337;-60
2022/02/28 04:07:06;;;;;;;45.87;25.93;;;0.70;99.90;;;1.61;100.00;-19781.69;5093029;28;20230;-61
2022/02/28 04:09:36;;;;;;;43.77;24.77;;;0.70;99.90;;;1.76;100.00;-19786.66;5093005;28;20298;-59
2022/02/28 04:12:05;;;;;;;42.77;24.70;;;0.80;99.90;;;1.64;100.00;-19782.56;5093116;28;20251;-59
2022/02/28 04:14:34;;;;;;;43.77;25.37;;;0.70;99.90;;;1.70;100.00;-19784.59;5091738;28;20312;-60
2022/02/28 04:17:02;;;;;;;44.47;24.17;;;0.80;99.90;;;1.48;100.00;-19777.09;5093562;28;20203;-59
2022/02/28 04:19:32;;;;;;;43.83;25.03;;;0.70;99.90;;;1.52;100.00;-19778.47;5092463;28;20240;-60
2022/02/28 04:22:00;;;;;;;44.90;24.63;;;0.70;99.90;;;1.50;100.00;-19777.78;5092759;28;20235;-59
2022/02/28 04:24:28;;;;;;;47.73;25.10;;;0.70;99.90;;;1.46;100.00;-19776.56;5092576;28;20238;-60
2022/02/28 04:26:57;;;;;;;46.40;24.93;;;0.60;99.90;;;1.74;100.00;-19786.16;5092725;28;20224;-59
2022/02/28 04:29:25;;;;;;;48.97;25.03;;;0.70;99.90;;;1.51;100.00;-19778.13;5092492;28;20216;-58
2022/02/28 04:31:53;;;;;;;43.40;23.57;;;0.70;99.90;;;1.66;100.00;-19783.41;5093496;28;20290;-60
2022/02/28 04:34:25;;;;;;;44.30;24.03;;;0.70;99.90;;;1.94;100.00;-19792.81;5092119;28;20226;-60
2022/02/28 04:36:54;;;;;;;41.50;23.53;;;0.80;99.90;;;1.86;100.00;-19790.25;5092411;28;20326;-60
2022/02/28 04:39:23;;;;;;;42.30;23.33;;;0.90;99.90;;;1.77;100.00;-19787.00;5092283;28;20723;-59
2022/02/28 04:41:51;;;;;;;40.60;23.97;;;0.80;99.90;;;1.61;100.00;-19781.53;5092493;28;20245;-60
2022/02/28 04:44:19;;;;;;;46.37;24.57;;;0.80;99.90;;;1.52;100.00;-19778.63;5092271;28;20199;-60
2022/02/28 04:46:50;;;;;;;44.43;24.77;;;0.80;99.90;;;1.53;100.00;-19778.97;5093048;28;20252;-60
2022/02/28 04:49:18;;;;;;;47.07;25.37;;;0.70;99.90;;;1.51;100.00;-19778.13;5091968;28;20228;-60
2022/02/28 04:51:46;;;;;;;49.80;26.57;;;0.70;99.90;;;1.46;100.00;-19776.56;5092076;28;20303;-59
2022/02/28 04:54:15;;;;;;;45.63;25.27;;;0.70;99.90;;;1.46;100.00;-19776.41;5091970;28;20235;-60
2022/02/28 04:56:43;;;;;;;45.57;24.97;;;0.70;99.90;;;1.41;100.00;-19774.69;5092110;28;20226;-59
2022/02/28 04:59:11;;;;;;;44.83;25.37;;;0.70;99.90;;;1.69;100.00;-19784.44;5091962;28;20200;-60
2022/02/28 05:01:39;;;;;;;45.70;25.37;;;0.80;99.90;;;1.76;100.00;-19786.84;5092791;28;20196;-60
2022/02/28 05:04:07;;;;;;;43.23;24.33;;;0.80;99.90;;;1.86;100.00;-19790.09;5092073;28;20230;-60
2022/02/28 05:06:36;;;;;;;48.07;25.60;;;0.90;99.90;;;1.79;100.00;-19787.69;5092162;28;20234;-60
2022/02/28 05:09:04;;;;;;;45.60;23.97;;;0.90;99.90;;;1.90;100.00;-19791.63;5092040;28;20321;-60
2022/02/28 05:11:33;;;;;;;44.23;23.27;;;0.90;99.90;;;1.69;100.00;-19784.28;5092049;28;20306;-61
2022/02/28 05:14:01;;;;;;;41.40;23.43;;;0.90;99.90;;;1.48;100.00;-19777.09;5092321;28;20224;-60
2022/02/28 05:16:29;;;;;;;43.40;24.47;;;0.80;99.90;;;1.47;100.00;-19776.75;5091495;28;20334;-59
2022/02/28 05:19:00;;;;;;;42.97;23.73;;;0.70;99.90;;;1.52;100.00;-19778.63;5091756;28;20646;-60
2022/02/28 05:21:28;;;;;;;45.13;24.30;;;0.70;99.90;;;1.53;100.00;-19778.78;5091603;28;20220;-60
2022/02/28 05:23:56;;;;;;;42.67;23.97;;;0.70;99.90;;;1.59;100.00;-19780.84;5091700;28;20225;-59
2022/02/28 05:26:24;;;;;;;45.97;24.93;;;0.70;99.90;;;1.69;100.00;-19784.44;5090931;28;20199;-61
2022/02/28 05:28:53;;;;;;;48.40;25.07;;;0.70;99.90;;;1.77;100.00;-19787.00;5092238;28;20205;-61
2022/02/28 05:31:21;;;;;;;46.20;24.07;;;0.80;99.90;;;1.61;100.00;-19781.69;5091389;28;20230;-59
2022/02/28 05:33:49;;;;;;;45.80;24.33;;;0.80;99.90;;;1.53;100.00;-19778.78;5091444;28;20361;-60
2022/02/28 05:36:17;;;;;;;44.67;24.63;;;0.70;99.90;;;1.65;100.00;-19783.06;5091578;28;20227;-60
2022/02/28 05:38:45;;;;;;;50.87;26.03;;;0.70;99.90;;;1.45;100.00;-19776.06;5091926;28;20244;-59
2022/02/28 05:41:12;;;;;;;50.90;25.57;;;0.60;99.90;;;1.46;100.00;-19776.56;5091388;28;20204;-58
2022/02/28 05:43:41;;;;;;;46.10;25.63;;;0.60;99.90;;;1.45;100.00;-19776.06;5091594;28;20291;-60
2022/02/28 05:46:11;;;;;;;48.70;25.00;;;0.60;99.90;;;1.48;100.00;-19777.09;5091196;28;20220;-60
2022/02/28 05:48:39;;;;;;;45.70;24.37;;;0.60;99.90;;;1.46;100.00;-19776.41;5091632;28;20275;-59
2022/02/28 05:51:09;;;;;;;47.43;25.77;;;0.60;99.90;;;1.62;100.00;-19782.06;5091289;28;20227;-60
2022/02/28 05:53:37;;;;;;;44.73;25.03;;;0.70;99.90;;;1.48;100.00;-19777.09;5090958;28;20234;-59
2022/02/28 05:56:06;;;;;;;47.00;24.70;;;0.70;99.90;;;1.69;100.00;-19784.28;5091717;28;20291;-61
2022/02/28 05:58:34;;;;;;;44.60;25.70;;;0.70;99.90;;;1.53;100.00;-19778.97;5091035;28;20254;-59
2022/02/28 06:01:02;;;;;;;44.47;24.30;;;0.70;99.90;;;1.56;100.00;-19780.00;5090961;28;20220;-60
2022/02/28 06:03:31;;;;;;;47.37;24.27;;;0.60;99.90;;;1.45;100.00;-19776.25;5090882;28;20234;-60
2022/02/28 06:06:05;;;;;;;44.87;23.50;;;0.60;99.90;;;1.46;100.00;-19776.56;5090819;28;20251;-61
2022/02/28 06:08:33;;;;;;;46.53;23.97;;;0.60;99.90;;;1.54;100.00;-19779.16;5091187;28;20254;-59
2022/02/28 06:11:01;;;;;;;44.90;22.63;;;0.60;99.90;;;1.36;100.00;-19773.16;5091416;28;20538;-60
2022/02/28 06:13:29;;;;;;;47.73;25.10;;;0.50;99.90;;;1.53;100.00;-19778.97;5090584;28;20711;-59
2022/02/28 06:15:57;;;;;;;48.50;24.63;;;0.50;99.90;;;1.60;100.00;-19781.38;5090818;28;20321;-61
2022/02/28 06:18:25;;;;;;;50.13;25.00;;;0.60;99.90;;;1.47;100.00;-19776.91;5090938;28;20228;-60
2022/02/28 06:20:54;;;;;;;47.50;24.90;;;0.60;99.90;;;1.50;100.00;-19777.94;5090708;28;20228;-60
2022/02/28 06:23:22;;;;;;;44.97;23.80;;;0.60;99.90;;;1.39;100.00;-19774.19;5090518;28;20252;-61
2022/02/28 06:25:50;;;;;;;50.73;25.37;;;0.60;99.90;;;1.32;100.00;-19771.78;5091261;28;20197;-61
2022/02/28 06:28:21;;;;;;;52.50;25.87;;;0.60;99.90;;;1.76;100.00;-19786.84;5090350;28;20663;-59
2022/02/28 06:30:49;;;;;;;44.57;24.13;;;0.70;99.90;;;1.56;100.00;-19780.00;5090604;28;20281;-60
2022/02/28 06:33:17;;;;;;;47.07;24.60;;;0.70;99.90;;;1.48;100.00;-19777.09;5090429;28;20280;-60
2022/02/28 06:35:48;;;;;;;43.33;24.57;;;0.70;99.90;;;1.92;100.00;-19792.31;5090784;28;20262;-61
2022/02/28 06:38:18;;;;;;;46.83;24.53;;;0.80;99.90;;;2.05;100.00;-19796.56;5093487;28;20218;-59
2022/02/28 06:40:47;;;;;;;44.77;23.30;;;0.90;99.90;;;1.87;100.00;-19790.44;5095549;28;20283;-59
2022/02/28 06:43:17;;;;;;;45.00;23.60;;;0.90;99.90;;;1.90;100.00;-19791.63;5094649;28;20649;-60
2022/02/28 06:45:45;;;;;;;40.43;21.93;;;1.00;99.90;;;1.86;100.00;-19790.25;5094967;28;20338;-59
2022/02/28 06:48:14;;;;;;;39.33;22.70;;;0.90;99.90;;;1.65;100.00;-19782.91;5094985;28;20223;-60
2022/02/28 06:50:42;;;;;;;41.20;22.63;;;0.90;99.90;;;1.44;100.00;-19775.88;5094593;28;20766;-60
2022/02/28 06:53:10;;;;;;;44.47;23.00;;;0.70;99.90;;;1.60;100.00;-19781.38;5094913;28;20227;-61
2022/02/28 06:55:40;;;;;;;41.53;21.70;;;0.80;99.90;;;1.82;100.00;-19788.88;5095180;28;20223;-59
2022/02/28 06:58:09;;;;;;;39.27;21.23;;;0.80;99.90;;;1.70;100.00;-19784.78;5094376;28;20223;-60
2022/02/28 07:00:37;;;;;;;42.07;21.67;;;0.80;99.90;;;1.65;100.00;-19783.06;5095195;28;20308;-61
2022/02/28 07:03:07;;;;;;;43.70;22.33;;;0.80;99.90;;;1.67;100.00;-19783.75;5094894;28;20232;-59
2022/02/28 07:05:36;;;;;;;43.83;21.17;;;0.80;99.90;;;1.76;100.00;-19786.84;5094681;28;20255;-61
2022/02/28 07:08:04;;;;;;;38.23;21.50;;;0.80;99.90;;;1.88;100.00;-19790.75;5094774;28;20417;-61
2022/02/28 07:10:32;;;;;;;39.40;21.07;;;0.90;99.90;;;1.89;100.00;-19791.28;5094291;28;20272;-61
2022/02/28 07:13:01;;;;;;;39.07;20.80;;;0.90;99.90;;;1.54;100.00;-19779.31;5093867;28;20224;-61
2022/02/28 07:15:29;;;;;;;38.00;20.70;;;0.80;99.90;;;1.74;100.00;-19785.97;5094160;28;20234;-59
2022/02/28 07:18:00;;;;;;;40.27;20.57;;;0.80;99.90;;;1.62;100.00;-19781.88;5094157;28;20222;-61
2022/02/28 07:20:28;;;;;;;40.53;21.37;;;0.80;99.90;;;1.86;100.00;-19790.25;5094069;28;20607;-62
2022/02/28 07:22:55;;;;;;;43.73;21.77;;;0.80;99.90;;;2.06;100.00;-19797.09;5094275;28;20204;-60
2022/02/28 07:25:24;;;;;;;40.87;21.40;;;1.00;99.90;;;2.04;100.00;-19796.25;5094035;28;20246;-61
2022/02/28 07:27:53;;;;;;;40.13;22.00;;;1.00;99.90;;;1.93;100.00;-19792.66;5093634;28;20223;-61
2022/02/28 07:30:23;;;;;;;38.63;21.47;;;1.00;99.90;;;2.03;100.00;-19795.91;5093782;28;20714;-60
2022/02/28 07:32:52;;;;;;;40.50;22.47;;;1.10;99.90;;;2.19;100.00;-19801.53;5093578;28;20227;-58
2022/02/28 07:35:20;;;;;;;41.43;21.53;;;1.20;99.90;;;2.17;100.00;-19800.84;5093843;28;20653;-60
2022/02/28 07:37:48;;;;;;;38.60;21.77;;;1.20;99.90;;;2.18;100.00;-19801.03;5093862;28;20214;-57
2022/02/28 07:40:18;;;;;;;38.90;21.13;;;1.30;99.90;;;2.29;100.00;-19804.97;5093578;28;20231;-62
2022/02/28 07:42:46;;;;;;;33.90;19.57;;;1.40;99.90;;;2.50;100.00;-19812.13;5093412;28;20251;-60
2022/02/28 07:45:14;;;;;;;36.67;19.33;;;1.50;99.90;;;2.44;100.00;-19810.09;5093553;28;20264;-60
2022/02/28 07:47:44;;;;;;;34.37;19.47;;;1.50;99.90;;;2.57;100.00;-19814.19;5093185;28;20298;-59
2022/02/28 07:50:12;;;;;;;39.13;19.70;;;1.60;99.90;;;2.64;100.00;-19816.75;5093798;28;20287;-60
2022/02/28 07:52:40;;;;;;;32.10;19.53;;;1.70;99.90;;;2.77;100.00;-19821.03;5094140;28;20197;-61
2022/02/28 07:55:09;;;;;;;29.10;17.50;;;1.70;99.90;;;2.74;100.00;-19820.00;5093279;28;20231;-59
2022/02/28 07:57:38;;;;;;;33.07;19.20;;;1.70;99.90;;;2.83;100.00;-19823.25;5093089;28;20688;-60
2022/02/28 08:00:09;;;;;;;33.40;18.87;;;1.80;99.90;;;2.77;100.00;-19821.19;5093505;28;20251;-60
2022/02/28 08:02:37;;;;;;;30.07;18.90;;;1.80;99.90;;;2.66;100.00;-19817.44;5093528;28;20647;-60
2022/02/28 08:05:08;;;;;;;32.60;19.97;;;1.80;99.90;;;2.41;100.00;-19809.06;5094032;28;20238;-61
2022/02/28 08:07:43;;;;;;;32.47;18.53;;;1.60;99.90;;;2.56;100.00;-19814.00;5093438;28;20258;-60
2022/02/28 08:10:11;;;;;;;30.57;18.27;;;1.60;99.90;;;2.58;100.00;-19814.69;5093090;28;20304;-60
2022/02/28 08:12:39;;;;;;;31.90;18.27;;;1.70;99.90;;;2.79;100.00;-19821.72;5092476;28;20632;-60
2022/02/28 08:15:10;;;;;;;26.60;16.27;;;1.80;99.90;;;2.92;100.00;-19826.31;5093039;28;20315;-60
2022/02/28 08:17:39;;;;;;;26.87;17.30;;;1.80;99.90;;;2.90;100.00;-19825.63;5092997;28;20226;-60
2022/02/28 08:20:12;;;;;;;26.23;15.80;;;1.90;99.90;;;3.15;100.00;-19834.19;5093123;28;20235;-60
2022/02/28 08:22:40;;;;;;;27.33;16.67;;;2.00;99.90;;;3.19;100.00;-19835.56;5093753;28;20283;-60
2022/02/28 08:25:09;;;;;;;26.07;16.47;;;2.10;99.90;;;3.20;100.00;-19835.91;5092919;28;20580;-59
2022/02/28 08:27:38;;;;;;;28.00;16.00;;;2.20;99.90;;;3.11;100.00;-19832.66;5092267;28;20305;-59
2022/02/28 08:30:09;;;;;;;28.17;16.60;;;2.20;99.90;;;3.42;100.00;-19843.25;5092978;28;20632;-58
2022/02/28 08:32:36;;;;;;;26.93;16.07;;;2.30;99.90;;;3.44;100.00;-19843.94;5093339;28;20306;-61
2022/02/28 08:35:06;;;;;;;24.83;15.63;;;2.30;99.90;;;3.44;100.00;-19843.94;5093509;28;20561;-59
2022/02/28 08:37:35;;;;;;;26.00;14.83;;;2.40;99.90;;;3.54;100.00;-19847.34;5092519;28;20259;-60
2022/02/28 08:40:04;;;;;;;25.90;15.30;;;2.50;99.90;;;3.43;100.00;-19843.59;5092562;28;20228;-62
2022/02/28 08:42:32;;;;;;;24.67;16.23;;;2.40;99.90;;;3.71;100.00;-19853.16;5092014;28;20574;-60
2022/02/28 08:45:02;;;;;;;24.43;16.30;;;2.50;99.90;;;3.72;100.00;-19853.50;5092088;28;20255;-60
2022/02/28 08:47:30;;;;;;;23.70;15.20;;;2.60;99.90;;;3.77;100.00;-19855.03;5092461;28;20263;-60
2022/02/28 08:50:00;;;;;;;27.27;15.90;;;2.60;99.90;;;3.66;100.00;-19851.63;5092434;28;20688;-59
2022/02/28 08:52:28;;;;;;;26.13;16.57;;;2.60;99.90;;;3.82;100.00;-19856.75;5091833;28;20219;-60
2022/02/28 08:54:58;;;;;;;26.80;16.13;;;2.60;99.90;;;3.87;100.00;-19858.63;5091640;28;20641;-59
2022/02/28 08:57:26;;;;;;;27.20;16.43;;;2.70;99.90;;;3.89;100.00;-19859.31;5091196;28;20318;-59
2022/02/28 08:59:54;;;;;;;26.93;17.00;;;2.80;99.90;;;4.05;100.00;-19864.78;5090389;28;20222;-59
2022/02/28 09:02:23;;;;;;;24.40;15.73;;;2.90;99.90;;;4.14;100.00;-19867.88;5091308;28;20224;-58
2022/02/28 09:04:51;;;;;;;28.97;17.20;;;2.90;99.90;;;4.11;100.00;-19866.84;5091500;28;20201;-58
2022/02/28 09:07:19;;;;;;;26.97;17.00;;;3.00;99.90;;;4.44;100.00;-19877.94;5091052;28;20689;-60
2022/02/28 09:09:47;;;;;;;26.30;15.63;;;3.20;99.90;;;4.36;100.00;-19875.38;5091170;28;20319;-58
2022/02/28 09:12:16;;;;;;;25.53;16.57;;;3.20;99.90;;;4.39;100.00;-19876.25;5091086;28;20229;-60
2022/02/28 09:14:44;;;;;;;27.00;16.70;;;3.30;99.90;;;4.51;100.00;-19880.50;5090999;28;20236;-59
2022/02/28 09:17:12;;;;;;;26.33;16.20;;;3.30;99.90;;;4.92;100.00;-19894.34;5091415;28;20320;-59
2022/02/28 09:19:40;;;;;;;23.70;15.73;;;3.50;99.90;;;5.11;100.00;-19900.69;5092508;28;20732;-59
2022/02/28 09:22:10;;;;;;;27.27;16.43;;;3.70;99.90;;;5.20;100.00;-19903.75;5090963;28;20679;-59
2022/02/28 09:24:38;;;;;;;24.43;16.23;;;3.80;99.90;;;5.28;100.00;-19906.50;5090749;28;20306;-59
2022/02/28 09:27:07;;;;;;;25.50;15.90;;;3.90;99.90;;;5.24;100.00;-19905.13;5090870;28;20510;-59
2022/02/28 09:29:37;;;;;;;25.97;16.17;;;4.00;99.90;;;5.25;100.00;-19905.63;5090798;28;20255;-59
2022/02/28 09:32:06;;;;;;;23.97;15.30;;;4.00;99.90;;;5.13;100.00;-19901.38;5091427;28;20670;-59
2022/02/28 09:34:34;;;;;;;25.23;16.10;;;4.00;99.90;;;5.26;100.00;-19905.81;5090886;28;20221;-60
2022/02/28 09:37:02;;;;;;;25.43;16.17;;;4.10;99.90;;;5.27;100.00;-19906.16;5090627;28;20221;-59
2022/02/28 09:39:30;;;;;;;24.17;15.23;;;4.10;99.90;;;5.41;100.00;-19910.94;5090234;28;20228;-60
2022/02/28 09:42:00;;;;;;;23.03;15.10;;;4.10;99.90;;;5.48;100.00;-19913.34;5090454;28;20757;-59
2022/02/28 09:44:30;;;;;;;25.67;15.13;;;4.20;99.90;;;5.46;100.00;-19912.81;5090534;28;20652;-59
2022/02/28 09:47:01;;;;;;;22.30;15.47;;;4.20;99.90;;;5.48;100.00;-19913.50;5090800;28;20193;-60
2022/02/28 09:49:31;;;;;;;26.13;15.60;;;4.20;99.90;;;5.31;99.71;-19907.53;5090203;28;20276;-60
2022/02/28 09:51:59;;;;;;;25.00;14.87;;;4.10;99.90;;;5.47;100.00;-19913.16;5090639;28;20227;-59
2022/02/28 09:54:27;;;;;;;24.80;15.87;;;4.10;99.90;;;5.51;100.00;-19914.34;5090341;28;20231;-59
2022/02/28 09:56:56;;;;;;;24.40;15.10;;;4.00;99.90;;;5.32;100.00;-19907.84;5089735;28;20239;-59
2022/02/28 09:59:24;;;;;;;23.13;15.50;;;4.00;99.90;;;5.52;99.58;-19914.69;5090032;28;20586;-58
2022/02/28 10:02:01;;;;;;;21.93;14.23;;;4.10;99.90;;;5.61;98.65;-19917.78;5090710;28;20215;-60
2022/02/28 10:04:30;;;;;;;23.97;15.47;;;4.10;99.90;;;5.37;98.40;-19909.56;5089664;28;20230;-58
2022/02/28 10:07:00;;;;;;;25.77;15.77;;;4.10;99.90;;;5.08;100.00;-19899.81;5090073;28;20432;-59
2022/02/28 10:09:29;;;;;;;24.33;15.47;;;3.90;99.90;;;4.97;100.00;-19896.22;5089950;28;20269;-59
2022/02/28 10:11:58;;;;;;;21.37;14.47;;;3.90;99.90;;;5.03;100.00;-19898.13;5089239;28;20220;-60